Time;durP1;ratioP1;P1;durP2;ratioP2;P2;SDS_P1;SDS_P2;PMS_P1;PMS_P2;Temp;Humidity;BMP_temperature;BMP_pressure;BME280_temperature;BME280_humidity;BME280_pressure;Samples;Min_cycle;Max_cycle;Signal;HPM_P1;HPM_P2
2021/11/10 00:00:11;;;;;;;;;;;3.40;99.90;;;;;;5139100;27;20026;-77
2021/11/10 00:02:37;;;;;;;14.07;7.30;;;3.30;99.90;;;;;;5138564;27;19909;-77
2021/11/10 00:05:04;;;;;;;15.55;7.82;;;3.30;99.90;;;;;;5137874;27;20030;-77
2021/11/10 00:07:30;;;;;;;16.63;8.45;;;3.30;99.90;;;;;;5138379;27;20076;-77
2021/11/10 00:09:56;;;;;;;16.30;8.73;;;3.20;99.90;;;;;;5138271;27;20019;-76
2021/11/10 00:12:22;;;;;;;;;;;3.10;99.90;;;;;;5158121;27;20174;-77
2021/11/10 00:14:48;;;;;;;17.92;9.52;;;3.10;99.90;;;;;;5138444;27;20043;-77
2021/11/10 00:17:14;;;;;;;;;;;3.00;99.90;;;;;;5157085;27;20514;-76
2021/11/10 00:19:39;;;;;;;30.58;14.48;;;3.00;99.90;;;;;;5157460;27;19907;-76
2021/11/10 00:22:05;;;;;;;;;;;3.00;99.90;;;;;;5139175;27;20030;-77
2021/11/10 00:24:31;;;;;;;28.98;13.05;;;3.00;99.90;;;;;;5139294;27;19903;-76
2021/11/10 00:26:56;;;;;;;28.70;12.82;;;3.00;99.90;;;;;;5138689;27;20136;-77
2021/11/10 00:29:22;;;;;;;;;;;2.90;99.90;;;;;;5139793;27;20555;-77
2021/11/10 00:31:48;;;;;;;24.27;10.75;;;2.90;99.90;;;;;;5158121;27;19906;-78
2021/11/10 00:34:13;;;;;;;;;;;2.80;99.90;;;;;;5139338;27;20030;-77
2021/11/10 00:36:39;;;;;;;90.63;26.13;;;2.80;99.90;;;;;;5139386;27;19918;-77
2021/11/10 00:39:05;;;;;;;86.68;24.67;;;2.80;99.90;;;;;;5138543;27;20026;-76
2021/11/10 00:41:32;;;;;;;80.20;23.58;;;2.80;99.90;;;;;;5139877;27;20102;-77
2021/11/10 00:44:01;;;;;;;51.28;16.25;;;2.80;99.90;;;;;;5158271;27;20030;-77
2021/11/10 00:46:28;;;;;;;40.33;14.18;;;2.80;99.90;;;;;;5139585;27;20037;-77
2021/11/10 00:48:54;;;;;;;42.75;14.70;;;2.90;99.90;;;;;;5139547;27;20026;-77
2021/11/10 00:51:19;;;;;;;;;;;2.90;99.90;;;;;;5159168;27;20027;-77
2021/11/10 00:53:45;;;;;;;36.47;13.93;;;2.90;99.90;;;;;;5139571;27;19907;-77
2021/11/10 00:56:10;;;;;;;;;;;2.90;99.90;;;;;;5158466;27;20022;-77
2021/11/10 00:58:36;;;;;;;33.72;13.88;;;2.90;99.90;;;;;;5140444;27;19938;-77
2021/11/10 01:01:02;;;;;;;;;;;2.90;99.90;;;;;;5140776;27;20030;-77
2021/11/10 01:03:27;;;;;;;28.63;12.65;;;2.90;99.90;;;;;;5159670;27;19924;-77
2021/11/10 01:05:55;;;;;;;27.73;12.90;;;2.80;99.90;;;;;;5141106;27;20014;-77
2021/11/10 01:08:21;;;;;;;29.27;12.82;;;2.70;99.90;;;;;;5137696;27;20026;-77
2021/11/10 01:10:47;;;;;;;23.60;11.73;;;2.70;99.90;;;;;;5156246;27;20026;-76
2021/11/10 01:13:13;;;;;;;;;;;2.70;99.90;;;;;;5138051;27;20027;-77
2021/11/10 01:15:40;;;;;;;26.08;11.68;;;2.90;99.90;;;;;;5136721;27;19958;-77
2021/11/10 01:18:06;;;;;;;22.73;12.20;;;2.80;99.90;;;;;;5156524;27;20022;-77
2021/11/10 01:20:31;;;;;;;;;;;2.80;99.90;;;;;;5137904;27;20451;-77
2021/11/10 01:22:58;;;;;;;17.02;8.75;;;2.90;99.90;;;;;;5156559;27;19903;-77
2021/11/10 01:25:24;;;;;;;20.88;10.10;;;3.00;99.90;;;;;;5155895;27;20019;-77
2021/11/10 01:27:50;;;;;;;14.98;9.10;;;3.00;99.90;;;;;;5137832;27;20470;-76
2021/11/10 01:30:16;;;;;;;17.80;10.50;;;3.10;99.90;;;;;;5137958;27;20023;-77
2021/11/10 01:32:43;;;;;;;17.63;9.63;;;3.10;99.90;;;;;;5135218;27;20035;-77
2021/11/10 01:35:10;;;;;;;21.15;9.70;;;3.10;99.90;;;;;;5135059;27;20021;-76
2021/11/10 01:37:35;;;;;;;26.73;11.63;;;3.10;99.90;;;;;;5135554;27;20035;-76
2021/11/10 01:40:02;;;;;;;;;;;3.00;99.90;;;;;;5136794;27;20177;-76
2021/11/10 01:42:30;;;;;;;25.30;12.57;;;2.90;99.90;;;;;;5135858;27;19909;-76
2021/11/10 01:44:57;;;;;;;23.40;12.52;;;2.90;99.90;;;;;;5135928;27;20494;-76
2021/11/10 01:47:23;;;;;;;21.60;11.65;;;2.90;99.90;;;;;;5135641;27;20398;-77
2021/11/10 01:49:49;;;;;;;;;;;2.80;99.90;;;;;;5136391;27;20023;-77
2021/11/10 01:52:15;;;;;;;21.33;11.57;;;2.80;99.90;;;;;;5135107;27;20060;-77
2021/11/10 01:54:43;;;;;;;23.42;10.88;;;2.80;99.90;;;;;;5136139;27;20030;-77
2021/11/10 01:57:10;;;;;;;19.63;10.00;;;2.80;99.90;;;;;;5135870;27;20038;-76
2021/11/10 01:59:48;;;;;;;18.48;10.18;;;2.80;99.90;;;;;;5154276;27;20025;-77
2021/11/10 02:02:22;;;;;;;26.60;14.43;;;2.80;99.90;;;;;;5131501;27;20027;-77
2021/11/10 02:04:50;;;;;;;25.92;13.25;;;2.80;99.90;;;;;;5135531;27;20079;-77
2021/11/10 02:07:17;;;;;;;29.63;14.88;;;2.70;99.90;;;;;;5154441;27;20454;-77
2021/11/10 02:09:44;;;;;;;38.65;19.48;;;2.70;99.90;;;;;;5135887;27;20027;-77
2021/11/10 02:12:11;;;;;;;33.97;16.80;;;2.70;99.90;;;;;;5135805;27;20056;-78
2021/11/10 02:14:38;;;;;;;37.17;17.90;;;2.70;99.90;;;;;;5135654;27;20513;-77
2021/11/10 02:17:05;;;;;;;34.08;16.98;;;2.70;99.90;;;;;;5136146;27;20035;-76
2021/11/10 02:19:32;;;;;;;31.83;17.00;;;2.60;99.90;;;;;;5136206;27;20026;-77
2021/11/10 02:22:00;;;;;;;31.05;15.45;;;2.60;99.90;;;;;;5136298;27;20027;-76
2021/11/10 02:24:31;;;;;;;36.05;15.98;;;2.60;99.90;;;;;;5135939;27;20037;-77
2021/11/10 02:26:57;;;;;;;31.77;15.48;;;2.50;99.90;;;;;;5135429;27;20406;-77
2021/11/10 02:29:24;;;;;;;;;;;2.50;99.90;;;;;;5136399;27;20030;-76
2021/11/10 02:31:51;;;;;;;26.63;14.80;;;2.50;99.90;;;;;;5155013;27;19910;-76
2021/11/10 02:34:17;;;;;;;23.10;12.27;;;2.60;99.90;;;;;;5135852;27;20079;-76
2021/11/10 02:36:44;;;;;;;19.85;11.45;;;2.50;99.90;;;;;;5135573;27;20035;-77
2021/11/10 02:39:20;;;;;;;20.85;12.55;;;2.50;99.90;;;;;;5136498;27;20015;-77
2021/11/10 02:41:47;;;;;;;20.55;11.23;;;2.50;99.90;;;;;;5136291;27;20023;-77
2021/11/10 02:44:22;;;;;;;25.48;11.82;;;2.40;99.90;;;;;;5136216;27;20030;-77
2021/11/10 02:46:50;;;;;;;22.90;11.20;;;2.40;99.90;;;;;;5135850;27;20031;-77
2021/11/10 02:49:16;;;;;;;18.55;10.65;;;2.50;99.90;;;;;;5136310;27;20027;-77
2021/11/10 02:52:03;;;;;;;20.85;12.25;;;2.40;99.90;;;;;;5136095;27;20066;-76
2021/11/10 02:54:31;;;;;;;28.92;13.35;;;2.30;99.90;;;;;;5154994;27;20087;-77
2021/11/10 02:56:59;;;;;;;23.30;12.13;;;2.30;99.90;;;;;;5135732;27;20040;-77
2021/11/10 02:59:26;;;;;;;19.63;11.50;;;2.30;99.90;;;;;;5154890;27;20033;-77
2021/11/10 03:01:53;;;;;;;20.40;11.88;;;2.30;99.90;;;;;;5136241;27;20019;-77
2021/11/10 03:04:29;;;;;;;21.95;12.38;;;2.30;99.90;;;;;;5136353;27;20035;-77
2021/11/10 03:06:56;;;;;;;20.50;10.98;;;2.30;99.90;;;;;;5136079;27;20022;-77
2021/11/10 03:09:29;;;;;;;19.05;11.13;;;2.30;99.90;;;;;;5155705;27;20086;-77
2021/11/10 03:12:00;;;;;;;20.08;11.00;;;2.20;99.90;;;;;;5136016;27;20406;-77
2021/11/10 03:14:28;;;;;;;18.83;10.48;;;2.20;99.90;;;;;;5154665;27;20023;-77
2021/11/10 03:16:55;;;;;;;24.10;11.95;;;2.10;99.90;;;;;;5154686;27;20034;-76
2021/11/10 03:19:21;;;;;;;25.40;14.18;;;2.20;99.90;;;;;;5136736;27;20022;-77
2021/11/10 03:21:47;;;;;;;;;;;2.10;99.90;;;;;;5155772;27;20368;-76
2021/11/10 03:24:14;;;;;;;29.90;15.57;;;2.20;99.90;;;;;;5136478;27;19956;-77
2021/11/10 03:26:39;;;;;;;28.45;15.68;;;2.10;99.90;;;;;;5136474;27;20023;-77
2021/11/10 03:29:05;;;;;;;;;;;2.30;99.90;;;;;;5155678;27;20440;-77
2021/11/10 03:31:32;;;;;;;30.73;13.93;;;2.30;99.90;;;;;;5137351;27;19958;-77
2021/11/10 03:33:59;;;;;;;23.63;13.52;;;2.40;99.90;;;;;;5138531;27;20019;-77
2021/11/10 03:36:25;;;;;;;23.25;13.77;;;2.60;99.90;;;;;;5139367;27;20396;-77
2021/11/10 03:38:51;;;;;;;;;;;2.70;99.90;;;;;;5136898;27;20058;-77
2021/11/10 03:41:16;;;;;;;21.70;12.02;;;2.90;99.90;;;;;;5135410;27;19907;-77
2021/11/10 03:43:42;;;;;;;;;;;3.00;99.90;;;;;;5135234;27;20027;-75
2021/11/10 03:46:08;;;;;;;19.27;10.93;;;3.10;99.90;;;;;;5153512;27;19914;-77
2021/11/10 03:48:34;;;;;;;24.27;11.63;;;3.30;99.90;;;;;;5153680;27;20023;-77
2021/11/10 03:51:00;;;;;;;;;;;3.40;99.90;;;;;;5135864;27;20025;-77
2021/11/10 03:53:25;;;;;;;20.10;11.40;;;3.40;99.90;;;;;;5155209;27;20165;-77
2021/11/10 03:55:51;;;;;;;;;;;3.50;99.90;;;;;;5156405;27;20023;-78
2021/11/10 03:58:17;;;;;;;19.02;11.65;;;3.60;99.90;;;;;;5133755;27;19911;-77
2021/11/10 04:00:43;;;;;;;;;;;3.60;99.90;;;;;;5133160;27;20026;-77
2021/11/10 04:03:08;;;;;;;20.60;11.50;;;3.60;99.90;;;;;;5151690;27;20374;-76
2021/11/10 04:05:34;;;;;;;;;;;3.50;99.90;;;;;;5152050;27;20499;-77
2021/11/10 04:08:00;;;;;;;21.67;11.38;;;3.60;99.90;;;;;;5132964;27;20328;-77
2021/11/10 04:10:25;;;;;;;;;;;3.50;99.90;;;;;;5152181;27;20027;-76
2021/11/10 04:12:51;;;;;;;22.38;11.25;;;3.40;99.90;;;;;;5151864;27;19998;-77
2021/11/10 04:15:16;;;;;;;22.73;12.35;;;3.40;99.90;;;;;;5154271;27;20518;-77
2021/11/10 04:17:42;;;;;;;;;;;3.20;99.90;;;;;;5137577;27;20058;-76
2021/11/10 04:20:09;;;;;;;23.88;13.23;;;3.20;99.90;;;;;;5137752;27;19907;-77
2021/11/10 04:22:34;;;;;;;30.42;14.57;;;3.20;99.90;;;;;;5155819;27;20019;-77
2021/11/10 04:25:00;;;;;;;;;;;3.10;99.90;;;;;;5156010;27;20555;-77
2021/11/10 04:27:26;;;;;;;23.83;11.90;;;3.30;99.90;;;;;;5156192;27;19914;-77
2021/11/10 04:29:52;;;;;;;23.48;12.70;;;3.30;99.90;;;;;;5137347;27;20019;-76
2021/11/10 04:32:18;;;;;;;24.15;12.93;;;3.40;99.90;;;;;;5156206;27;20034;-77
2021/11/10 04:34:45;;;;;;;;;;;3.30;99.90;;;;;;5137588;27;20026;-77
2021/11/10 04:37:13;;;;;;;19.73;11.70;;;3.30;99.90;;;;;;5137529;27;20033;-77
2021/11/10 04:39:40;;;;;;;25.15;13.85;;;3.30;99.90;;;;;;5137366;27;20035;-77
2021/11/10 04:42:09;;;;;;;18.02;11.55;;;3.40;99.90;;;;;;5138007;27;20023;-77
2021/11/10 04:44:36;;;;;;;24.25;13.10;;;3.30;99.90;;;;;;5155906;27;20026;-77
2021/11/10 04:47:03;;;;;;;25.63;13.68;;;3.50;99.90;;;;;;5155825;27;20023;-78
2021/11/10 04:49:30;;;;;;;24.92;14.45;;;3.50;99.90;;;;;;5155531;27;20023;-77
2021/11/10 04:52:01;;;;;;;24.85;14.93;;;3.70;99.90;;;;;;5137190;27;20026;-77
2021/11/10 04:54:31;;;;;;;30.17;15.52;;;3.60;99.90;;;;;;5137750;27;20015;-76
2021/11/10 04:56:58;;;;;;;30.38;17.48;;;3.50;99.90;;;;;;5121013;27;20053;-76
2021/11/10 04:59:24;;;;;;;41.13;23.63;;;3.50;99.90;;;;;;5156338;27;20049;-77
2021/11/10 05:04:31;;;;;;;37.92;20.85;;;3.50;99.90;;;;;;5156335;27;19950;-77
2021/11/10 05:06:57;;;;;;;34.00;19.00;;;3.20;99.90;;;;;;5137637;27;20064;-77
2021/11/10 05:09:23;;;;;;;32.35;17.52;;;3.30;99.90;;;;;;5156148;27;20030;-77
2021/11/10 05:11:49;;;;;;;;;;;3.40;99.90;;;;;;5138304;27;20026;-77
2021/11/10 05:14:15;;;;;;;30.77;17.05;;;3.40;99.90;;;;;;5137096;27;20009;-77
2021/11/10 05:16:40;;;;;;;;;;;3.60;99.90;;;;;;5156489;27;20890;-76
2021/11/10 05:19:06;;;;;;;21.92;14.23;;;3.70;99.90;;;;;;5136931;27;20374;-77
2021/11/10 05:21:32;;;;;;;;;;;3.60;99.90;;;;;;5138582;27;20083;-76
2021/11/10 05:23:58;;;;;;;28.52;14.95;;;3.70;99.90;;;;;;5156334;27;19906;-77
2021/11/10 05:26:23;;;;;;;;;;;3.50;99.90;;;;;;5136724;27;20809;-77
2021/11/10 05:28:50;;;;;;;24.85;14.02;;;3.60;99.90;;;;;;5156066;27;20378;-77
2021/11/10 05:31:16;;;;;;;29.80;16.05;;;3.60;99.90;;;;;;5135278;27;20023;-77
2021/11/10 05:33:41;;;;;;;;;;;3.60;99.90;;;;;;5154456;27;20054;-77
2021/11/10 05:36:07;;;;;;;22.45;13.55;;;3.60;99.90;;;;;;5137138;27;19917;-78
2021/11/10 05:38:33;;;;;;;;;;;3.70;99.90;;;;;;5137261;27;20046;-77
2021/11/10 05:40:59;;;;;;;27.13;14.52;;;3.70;99.90;;;;;;5155440;27;19907;-77
2021/11/10 05:43:25;;;;;;;;;;;3.80;99.90;;;;;;5139155;27;20018;-77
2021/11/10 05:45:51;;;;;;;23.65;14.32;;;3.90;99.90;;;;;;5138360;27;19962;-76
2021/11/10 05:48:17;;;;;;;29.25;15.13;;;3.80;99.90;;;;;;5138736;27;20019;-77
2021/11/10 05:50:43;;;;;;;;;;;3.70;99.90;;;;;;5138855;27;20026;-77
2021/11/10 05:53:08;;;;;;;27.63;16.52;;;3.70;99.90;;;;;;5139497;27;19963;-77
2021/11/10 05:55:35;;;;;;;;;;;3.70;99.90;;;;;;5140230;27;20432;-77
2021/11/10 05:58:02;;;;;;;23.15;15.13;;;3.70;99.90;;;;;;5139573;27;20322;-77
2021/11/10 06:00:27;;;;;;;62.03;31.20;;;3.60;99.90;;;;;;5139184;27;20042;-77
2021/11/10 06:02:53;;;;;;;;;;;3.60;99.90;;;;;;5140060;27;20478;-77
2021/11/10 06:05:19;;;;;;;56.75;29.30;;;3.50;99.90;;;;;;5138607;27;19914;-76
2021/11/10 06:07:46;;;;;;;51.72;26.75;;;3.40;99.90;;;;;;5138097;27;20022;-76
2021/11/10 06:10:14;;;;;;;40.72;22.75;;;3.40;99.90;;;;;;5154558;27;20056;-77
2021/11/10 06:12:40;;;;;;;39.95;21.05;;;3.30;99.90;;;;;;5134732;27;20026;-77
2021/11/10 06:15:06;;;;;;;;;;;3.20;99.90;;;;;;5153374;27;20130;-76
2021/11/10 06:17:32;;;;;;;38.72;21.02;;;3.20;99.90;;;;;;5134015;27;19919;-77
2021/11/10 06:20:00;;;;;;;;;;;3.30;99.90;;;;;;5134670;27;20075;-77
2021/11/10 06:22:26;;;;;;;31.27;17.60;;;3.50;99.90;;;;;;5133631;27;19942;-77
2021/11/10 06:24:52;;;;;;;;;;;4.00;99.90;;;;;;5133452;27;20483;-77
2021/11/10 06:27:18;;;;;;;30.15;15.15;;;4.60;99.90;;;;;;5151787;27;19903;-77
2021/11/10 06:29:44;;;;;;;;;;;4.90;99.90;;;;;;5152435;27;20050;-76
2021/11/10 06:32:09;;;;;;;30.77;15.90;;;5.40;99.90;;;;;;5153799;27;19942;-75
2021/11/10 06:34:35;;;;;;;;;;;6.00;99.90;;;;;;5120301;27;20055;-77
2021/11/10 06:37:01;;;;;;;21.80;14.77;;;6.60;99.90;;;;;;5111503;27;19915;-76
2021/11/10 06:39:26;;;;;;;;;;;7.10;99.90;;;;;;5116861;27;20499;-77
2021/11/10 06:41:52;;;;;;;23.02;13.57;;;7.70;99.90;;;;;;5150018;27;19903;-76
2021/11/10 06:44:18;;;;;;;;;;;8.30;99.90;;;;;;5132467;27;20031;-77
2021/11/10 06:46:44;;;;;;;33.35;18.25;;;8.90;99.90;;;;;;5131501;27;19914;-77
2021/11/10 06:49:10;;;;;;;37.58;22.13;;;9.30;99.90;;;;;;5130370;27;20022;-77
2021/11/10 06:51:35;;;;;;;;;;;9.60;99.90;;;;;;5149004;27;20076;-77
2021/11/10 06:54:01;;;;;;;33.67;21.17;;;9.80;99.90;;;;;;5129057;27;19989;-77
2021/11/10 06:56:27;;;;;;;;;;;10.00;99.90;;;;;;5148987;27;20045;-77
2021/11/10 06:58:52;;;;;;;28.42;20.00;;;10.00;99.90;;;;;;5129270;27;19951;-77
2021/11/10 07:01:18;;;;;;;;;;;10.00;99.90;;;;;;5122658;27;20042;-77
2021/11/10 07:03:44;;;;;;;21.73;15.30;;;9.80;99.90;;;;;;5129782;27;19942;-77
2021/11/10 07:06:09;;;;;;;;;;;10.00;99.90;;;;;;5111603;27;20031;-77
2021/11/10 07:08:35;;;;;;;13.90;9.25;;;10.40;99.90;;;;;;5124668;27;20297;-77
2021/11/10 07:11:01;;;;;;;;;;;10.70;99.90;;;;;;5132165;27;20037;-77
2021/11/10 07:13:27;;;;;;;18.30;12.13;;;10.90;99.90;;;;;;5150393;27;19942;-77
2021/11/10 07:15:53;;;;;;;13.32;8.10;;;11.10;99.90;;;;;;5131527;27;20110;-78
2021/11/10 07:18:18;;;;;;;;;;;11.10;99.90;;;;;;5150421;27;20409;-78
2021/11/10 07:20:44;;;;;;;10.77;6.80;;;11.20;99.90;;;;;;5131991;27;19926;-78
2021/11/10 07:23:09;;;;;;;;;;;11.20;99.90;;;;;;5132111;27;20478;-78
2021/11/10 07:25:35;;;;;;;19.35;13.07;;;11.10;99.90;;;;;;5131680;27;19903;-78
2021/11/10 07:28:01;;;;;;;;;;;11.00;99.90;;;;;;5132240;27;20026;-77
2021/11/10 07:30:27;;;;;;;12.82;10.60;;;11.10;99.90;;;;;;5132557;27;19956;-77
2021/11/10 07:32:53;;;;;;;;;;;11.10;99.90;;;;;;5132499;27;20033;-77
2021/11/10 07:35:19;;;;;;;14.02;7.82;;;11.10;99.90;;;;;;5150243;27;20003;-77
2021/11/10 07:37:46;;;;;;;8.50;6.10;;;11.30;99.90;;;;;;5150588;27;20117;-77
2021/11/10 07:40:13;;;;;;;9.60;6.05;;;11.40;99.90;;;;;;5150104;27;20497;-77
2021/11/10 07:42:39;;;;;;;7.97;5.75;;;11.60;99.90;;;;;;5150314;27;20039;-77
2021/11/10 07:45:11;;;;;;;;;;;11.60;99.90;;;;;;5131819;27;20027;-77
2021/11/10 07:47:42;;;;;;;47.55;25.10;;;11.80;99.90;;;;;;5131475;27;20282;-77
2021/11/10 07:50:17;;;;;;;28.42;15.13;;;11.90;99.90;;;;;;5152102;27;20022;-77
2021/11/10 07:52:43;;;;;;;10.48;5.55;;;12.10;99.90;;;;;;5154075;27;20022;-78
2021/11/10 07:55:10;;;;;;;15.13;6.18;;;12.00;99.90;;;;;;5135327;27;20109;-77
2021/11/10 07:57:36;;;;;;;11.60;7.65;;;11.90;99.90;;;;;;5135200;27;20030;-79
2021/11/10 08:00:03;;;;;;;;;;;12.10;99.90;;;;;;5135687;27;20414;-78
2021/11/10 08:02:29;;;;;;;9.55;6.70;;;12.20;99.90;;;;;;5153478;27;19997;-78
2021/11/10 08:04:55;;;;;;;;;;;12.60;99.90;;;;;;5154175;27;20106;-78
2021/11/10 08:07:20;;;;;;;14.68;9.77;;;12.70;99.90;;;;;;5134800;27;19913;-79
2021/11/10 08:09:46;;;;;;;;;;;13.10;98.20;;;;;;5153941;27;20031;-77
2021/11/10 08:12:11;;;;;;;17.48;10.93;;;13.10;98.00;;;;;;5135269;27;19910;-76
2021/11/10 08:14:37;;;;;;;;;;;13.20;97.10;;;;;;5154501;27;20050;-77
2021/11/10 08:17:03;;;;;;;11.20;6.72;;;13.30;95.40;;;;;;5137852;27;19961;-77
2021/11/10 08:19:28;;;;;;;;;;;13.20;96.00;;;;;;5136323;27;20018;-78
2021/11/10 08:21:54;;;;;;;10.85;5.28;;;12.90;97.20;;;;;;5135053;27;19903;-77
2021/11/10 08:24:21;;;;;;;;;;;13.30;97.60;;;;;;5135949;27;20486;-75
2021/11/10 08:26:47;;;;;;;15.32;6.72;;;13.60;95.80;;;;;;5134508;27;19914;-75
2021/11/10 08:29:13;;;;;;;10.15;6.97;;;14.10;94.00;;;;;;5134767;27;20092;-78
2021/11/10 08:31:38;;;;;;;;;;;14.40;91.70;;;;;;5135130;27;20035;-78
2021/11/10 08:34:04;;;;;;;10.68;6.63;;;14.50;90.80;;;;;;5134393;27;19914;-77
2021/11/10 08:36:29;;;;;;;;;;;14.40;91.70;;;;;;5135275;27;20058;-78
2021/11/10 08:38:55;;;;;;;9.50;5.90;;;14.40;91.00;;;;;;5134270;27;19911;-77
2021/11/10 08:41:21;;;;;;;9.68;6.10;;;14.70;91.20;;;;;;5134499;27;20462;-79
2021/11/10 08:43:52;;;;;;;9.45;6.05;;;14.70;88.90;;;;;;5134505;27;20046;-76
2021/11/10 08:46:22;;;;;;;9.68;6.72;;;14.90;88.30;;;;;;5134367;27;20149;-76
2021/11/10 08:48:50;;;;;;;11.55;6.60;;;14.60;87.30;;;;;;5134139;27;20489;-76
2021/11/10 08:51:16;;;;;;;8.70;5.82;;;14.80;87.70;;;;;;5134248;27;20027;-78
2021/11/10 08:53:42;;;;;;;10.25;7.50;;;14.90;86.80;;;;;;5152864;27;20079;-75
2021/11/10 08:56:08;;;;;;;8.52;6.30;;;14.90;86.10;;;;;;5134199;27;20037;-78
2021/11/10 08:58:34;;;;;;;12.50;7.40;;;14.50;86.30;;;;;;5134129;27;20039;-78
2021/11/10 09:01:00;;;;;;;13.00;9.05;;;14.50;88.60;;;;;;5133799;27;20622;-78
2021/11/10 09:03:28;;;;;;;10.02;7.43;;;14.50;87.80;;;;;;5134021;27;20117;-78
2021/11/10 09:05:54;;;;;;;10.27;7.22;;;14.20;89.30;;;;;;5133945;27;20027;-77
2021/11/10 09:08:22;;;;;;;10.68;8.00;;;13.90;90.80;;;;;;5152662;27;20084;-77
2021/11/10 09:10:47;;;;;;;13.75;8.77;;;13.50;91.90;;;;;;5134107;27;20038;-78
2021/11/10 09:13:13;;;;;;;;;;;12.90;93.50;;;;;;5134556;27;20023;-78
2021/11/10 09:15:39;;;;;;;11.88;8.27;;;12.70;94.80;;;;;;5152773;27;19918;-76
2021/11/10 09:18:06;;;;;;;;;;;12.30;96.10;;;;;;5134243;27;20517;-78
2021/11/10 09:20:33;;;;;;;17.38;10.25;;;12.20;98.20;;;;;;5133601;27;19903;-76
2021/11/10 09:23:01;;;;;;;14.20;10.13;;;12.00;99.90;;;;;;5152333;27;20035;-75
2021/11/10 09:25:29;;;;;;;21.52;10.35;;;11.90;99.50;;;;;;5133763;27;20023;-77
2021/11/10 09:27:57;;;;;;;17.70;11.43;;;11.70;99.90;;;;;;5133635;27;20405;-77
2021/11/10 09:30:26;;;;;;;18.08;12.15;;;11.50;99.90;;;;;;5133657;27;20037;-75
2021/11/10 09:32:53;;;;;;;22.35;12.48;;;11.40;99.90;;;;;;5152189;27;20021;-75
2021/11/10 09:35:21;;;;;;;17.13;11.98;;;11.20;99.90;;;;;;5133784;27;20026;-77
2021/11/10 09:37:49;;;;;;;17.27;11.57;;;11.00;99.90;;;;;;5133946;27;20091;-77
2021/11/10 09:40:17;;;;;;;19.73;12.23;;;10.80;99.90;;;;;;5133790;27;20026;-77
2021/11/10 09:42:44;;;;;;;21.67;12.18;;;10.80;99.90;;;;;;5134039;27;20019;-78
2021/11/10 09:45:13;;;;;;;18.35;11.27;;;10.80;99.90;;;;;;5133613;27;20033;-78
2021/11/10 09:47:39;;;;;;;19.10;13.43;;;10.70;99.90;;;;;;5152424;27;20502;-76
2021/11/10 09:50:06;;;;;;;;;;;10.70;99.90;;;;;;5133913;27;20025;-77
2021/11/10 09:52:31;;;;;;;22.67;12.05;;;10.60;99.90;;;;;;5133604;27;19907;-76
2021/11/10 09:54:57;;;;;;;;;;;10.50;99.90;;;;;;5133565;27;20037;-77
2021/11/10 09:57:24;;;;;;;20.33;12.20;;;10.50;99.90;;;;;;5151911;27;19915;-77
2021/11/10 09:59:50;;;;;;;18.83;12.93;;;10.40;99.90;;;;;;5133558;27;20397;-77
2021/11/10 10:02:16;;;;;;;;;;;10.50;99.90;;;;;;5152477;27;20109;-75
2021/11/10 10:04:43;;;;;;;21.63;13.18;;;10.50;99.90;;;;;;5151691;27;19947;-76
2021/11/10 10:07:10;;;;;;;17.85;12.73;;;10.70;99.90;;;;;;5151885;27;20054;-77
2021/11/10 10:09:37;;;;;;;19.45;14.05;;;10.50;99.90;;;;;;5133356;27;20011;-77
2021/11/10 10:12:04;;;;;;;20.92;13.85;;;10.70;99.90;;;;;;5132635;27;20034;-77
2021/11/10 10:14:32;;;;;;;19.95;14.23;;;10.80;99.90;;;;;;5133469;27;20019;-77
2021/11/10 10:17:00;;;;;;;19.40;13.55;;;10.60;99.90;;;;;;5129789;27;20047;-76
2021/11/10 10:19:40;;;;;;;20.45;14.18;;;10.70;99.90;;;;;;5130034;27;20491;-76
2021/11/10 10:22:07;;;;;;;24.80;14.75;;;10.60;99.90;;;;;;5130003;27;20145;-77
2021/11/10 10:24:53;;;;;;;18.05;11.88;;;10.40;99.90;;;;;;5129919;27;20100;-77
2021/11/10 10:27:23;;;;;;;14.82;10.57;;;10.50;99.90;;;;;;5131423;27;20035;-77
2021/11/10 10:30:09;;;;;;;18.35;12.50;;;10.50;99.90;;;;;;5130308;27;20027;-77
2021/11/10 10:32:38;;;;;;;18.17;12.68;;;10.40;99.90;;;;;;5129990;27;20027;-76
2021/11/10 10:35:27;;;;;;;15.70;10.35;;;10.40;99.90;;;;;;5131383;27;20102;-77
2021/11/10 10:37:52;;;;;;;17.10;11.48;;;10.50;99.90;;;;;;5131263;27;20035;-77
2021/11/10 10:40:19;;;;;;;;;;;10.60;99.90;;;;;;5131271;27;20042;-77
2021/11/10 10:42:45;;;;;;;20.17;10.93;;;10.70;99.90;;;;;;5129908;27;19911;-77
2021/11/10 10:45:35;;;;;;;16.60;11.18;;;10.70;99.90;;;;;;5129641;27;20092;-77
2021/11/10 10:48:12;;;;;;;30.70;15.15;;;10.60;99.90;;;;;;5129695;27;20027;-76
2021/11/10 10:50:45;;;;;;;;;;;10.60;99.90;;;;;;5129388;27;20445;-75
2021/11/10 10:53:13;;;;;;;23.75;12.65;;;10.70;99.90;;;;;;5128515;27;19908;-76
2021/11/10 10:55:45;;;;;;;18.58;10.20;;;10.80;99.90;;;;;;5128824;27;20466;-78
2021/11/10 10:58:28;;;;;;;16.90;11.50;;;10.90;99.90;;;;;;5128492;27;20043;-77
2021/11/10 11:00:54;;;;;;;17.17;11.52;;;11.00;99.90;;;;;;5128655;27;20038;-76
2021/11/10 11:03:20;;;;;;;;;;;11.00;99.90;;;;;;5130294;27;20030;-76
2021/11/10 11:05:45;;;;;;;21.25;12.35;;;10.90;99.90;;;;;;5128531;27;19907;-76
2021/11/10 11:08:44;;;;;;;;;;;10.90;99.90;;;;;;5129458;27;20054;-76
2021/11/10 11:11:23;;;;;;;19.65;12.40;;;10.90;99.90;;;;;;5094155;28;20457;-75
2021/11/10 11:13:58;;;;;;;16.88;11.57;;;10.80;99.90;;;;;;5129964;27;20034;-75
2021/11/10 11:16:35;;;;;;;14.80;11.43;;;10.80;99.90;;;;;;5127647;28;20130;-76
2021/11/10 11:19:36;;;;;;;19.08;12.68;;;10.90;99.90;;;;;;5128433;28;20084;-81
2021/11/10 11:22:03;;;;;;;20.98;11.88;;;11.00;99.90;;;;;;5117687;28;20019;-76
2021/11/10 11:24:38;;;;;;;18.38;11.88;;;11.00;99.90;;;;;;5129489;27;20046;-77
2021/11/10 11:27:15;;;;;;;18.13;11.68;;;11.00;99.90;;;;;;5133800;27;20163;-77
2021/11/10 11:29:42;;;;;;;17.50;11.82;;;11.00;99.90;;;;;;5132653;27;20030;-78
2021/11/10 11:32:26;;;;;;;15.30;10.90;;;10.90;99.90;;;;;;5135339;27;20059;-76
2021/11/10 11:34:54;;;;;;;18.10;11.30;;;11.00;99.90;;;;;;5132186;27;20031;-76
2021/11/10 11:37:21;;;;;;;19.20;13.07;;;11.00;99.90;;;;;;5115002;27;20407;-77
2021/11/10 11:39:48;;;;;;;17.40;11.98;;;11.10;99.90;;;;;;5132290;27;20475;-77
2021/11/10 11:42:15;;;;;;;18.58;11.65;;;11.10;99.90;;;;;;5131739;27;20080;-76
2021/11/10 11:44:42;;;;;;;18.30;12.18;;;11.10;99.90;;;;;;5131443;27;20034;-76
2021/11/10 11:47:08;;;;;;;18.00;12.95;;;11.10;99.90;;;;;;5131333;27;20075;-76
2021/11/10 11:49:38;;;;;;;;;;;11.10;99.90;;;;;;5132067;27;20027;-76
2021/11/10 11:52:12;;;;;;;17.58;11.98;;;11.00;99.90;;;;;;5133219;27;20006;-76
2021/11/10 11:54:45;;;;;;;11.73;8.93;;;10.90;99.90;;;;;;5131669;27;20057;-77
2021/11/10 11:57:13;;;;;;;15.13;9.73;;;11.00;99.90;;;;;;5131760;27;20050;-77
2021/11/10 11:59:40;;;;;;;13.05;9.38;;;11.00;99.90;;;;;;5131922;27;20023;-76
2021/11/10 12:02:43;;;;;;;17.67;11.80;;;10.90;99.90;;;;;;5131811;27;20019;-76
2021/11/10 12:05:15;;;;;;;15.60;11.18;;;10.90;99.90;;;;;;5131536;27;20158;-77
2021/11/10 12:07:51;;;;;;;16.15;9.50;;;10.90;99.90;;;;;;5131828;27;20411;-77
2021/11/10 12:10:25;;;;;;;12.77;8.57;;;10.90;99.90;;;;;;5131791;27;20035;-76
2021/11/10 12:13:13;;;;;;;12.38;9.18;;;10.80;99.90;;;;;;5132871;27;20620;-77
2021/11/10 12:15:58;;;;;;;12.25;8.80;;;10.80;99.90;;;;;;5134637;27;20019;-76
2021/11/10 12:18:25;;;;;;;14.63;9.60;;;10.70;99.90;;;;;;5153849;27;20806;-77
2021/11/10 12:21:02;;;;;;;13.15;9.60;;;10.70;99.90;;;;;;5135124;27;20026;-76
2021/11/10 12:23:47;;;;;;;;;;;10.70;99.90;;;;;;5135411;27;20034;-77
2021/11/10 12:26:13;;;;;;;13.10;9.80;;;10.60;99.90;;;;;;5153639;27;20295;-77
2021/11/10 12:28:56;;;;;;;11.82;8.63;;;10.50;99.90;;;;;;5153784;27;20025;-77
2021/11/10 12:31:32;;;;;;;15.50;9.65;;;10.50;99.90;;;;;;5134796;27;20027;-76
2021/11/10 12:33:59;;;;;;;12.32;8.80;;;10.60;99.90;;;;;;5134592;27;20175;-77
2021/11/10 12:36:58;;;;;;;14.88;9.30;;;10.60;99.90;;;;;;5134090;27;20039;-77
2021/11/10 12:39:35;;;;;;;12.27;9.60;;;10.60;99.90;;;;;;5134676;27;20026;-77
2021/11/10 12:42:03;;;;;;;11.75;9.05;;;10.60;99.90;;;;;;5153302;27;20486;-76
2021/11/10 12:44:37;;;;;;;14.68;10.48;;;10.60;99.90;;;;;;5134660;27;20019;-77
2021/11/10 12:47:03;;;;;;;13.95;9.73;;;10.60;99.90;;;;;;5153046;27;20027;-77
2021/11/10 12:49:29;;;;;;;12.38;8.77;;;10.50;99.90;;;;;;5153136;27;20410;-78
2021/11/10 12:52:10;;;;;;;;;;;10.50;99.90;;;;;;5134922;27;20547;-76
2021/11/10 12:54:48;;;;;;;11.00;8.10;;;10.60;99.90;;;;;;5134383;27;19903;-76
2021/11/10 12:57:30;;;;;;;12.05;8.30;;;10.70;99.90;;;;;;5134521;27;20121;-76
2021/11/10 12:59:56;;;;;;;14.13;9.98;;;10.80;99.90;;;;;;5134507;27;20421;-76
2021/11/10 13:02:23;;;;;;;;;;;10.80;99.90;;;;;;5134902;27;20529;-77
2021/11/10 13:04:56;;;;;;;17.67;11.90;;;10.60;99.90;;;;;;5153066;27;19903;-77